sensor_id;sensor_type;location;lat;lon;timestamp;pressure;altitude;pressure_sealevel;temperature;humidity
12759;BME280;20944;47.048;15.390;2023-12-29T00:00:08;97860.88;;;2.24;100.00
12759;BME280;20944;47.048;15.390;2023-12-29T00:02:36;97848.69;;;2.10;100.00
12759;BME280;20944;47.048;15.390;2023-12-29T00:05:05;97846.97;;;2.11;100.00
12759;BME280;20944;47.048;15.390;2023-12-29T00:07:34;97843.50;;;2.09;100.00
12759;BME280;20944;47.048;15.390;2023-12-29T00:10:03;97842.72;;;2.17;100.00
12759;BME280;20944;47.048;15.390;2023-12-29T00:12:31;97834.84;;;2.02;100.00
12759;BME280;20944;47.048;15.390;2023-12-29T00:15:00;97844.31;;;2.02;100.00
12759;BME280;20944;47.048;15.390;2023-12-29T00:17:29;97847.66;;;1.95;100.00
12759;BME280;20944;47.048;15.390;2023-12-29T00:19:59;97837.25;;;1.87;100.00
12759;BME280;20944;47.048;15.390;2023-12-29T00:22:27;97846.72;;;1.85;100.00
12759;BME280;20944;47.048;15.390;2023-12-29T00:24:56;97789.69;;;1.64;100.00
12759;BME280;20944;47.048;15.390;2023-12-29T00:27:24;97840.03;;;2.05;100.00
12759;BME280;20944;47.048;15.390;2023-12-29T00:29:52;97841.66;;;1.96;100.00
12759;BME280;20944;47.048;15.390;2023-12-29T00:32:21;97838.13;;;1.86;100.00
12759;BME280;20944;47.048;15.390;2023-12-29T00:34:51;97833.88;;;1.91;100.00
12759;BME280;20944;47.048;15.390;2023-12-29T00:37:19;97834.72;;;1.90;100.00
12759;BME280;20944;47.048;15.390;2023-12-29T00:39:47;97830.31;;;1.81;100.00
12759;BME280;20944;47.048;15.390;2023-12-29T00:42:16;97837.25;;;1.84;100.00
12759;BME280;20944;47.048;15.390;2023-12-29T00:44:44;97824.16;;;1.69;100.00
12759;BME280;20944;47.048;15.390;2023-12-29T00:47:12;97837.19;;;1.76;100.00
12759;BME280;20944;47.048;15.390;2023-12-29T00:49:41;97837.13;;;1.73;100.00
12759;BME280;20944;47.048;15.390;2023-12-29T00:52:11;97843.22;;;1.77;100.00
12759;BME280;20944;47.048;15.390;2023-12-29T00:54:40;97849.19;;;1.74;100.00
12759;BME280;20944;47.048;15.390;2023-12-29T00:57:09;97841.44;;;1.76;100.00
12759;BME280;20944;47.048;15.390;2023-12-29T00:59:38;97849.16;;;1.71;100.00
12759;BME280;20944;47.048;15.390;2023-12-29T01:02:07;97831.97;;;1.72;100.00
12759;BME280;20944;47.048;15.390;2023-12-29T01:04:37;97839.72;;;1.73;100.00
12759;BME280;20944;47.048;15.390;2023-12-29T01:07:06;97828.44;;;1.65;100.00
12759;BME280;20944;47.048;15.390;2023-12-29T01:09:38;97844.03;;;1.74;100.00
12759;BME280;20944;47.048;15.390;2023-12-29T01:12:07;97847.44;;;1.72;100.00
12759;BME280;20944;47.048;15.390;2023-12-29T01:14:35;97850.94;;;1.77;100.00
12759;BME280;20944;47.048;15.390;2023-12-29T01:17:04;97853.53;;;1.77;100.00
12759;BME280;20944;47.048;15.390;2023-12-29T01:19:33;97831.94;;;1.70;100.00
12759;BME280;20944;47.048;15.390;2023-12-29T01:22:01;97850.97;;;1.81;100.00
12759;BME280;20944;47.048;15.390;2023-12-29T01:24:30;97849.16;;;1.71;100.00
12759;BME280;20944;47.048;15.390;2023-12-29T01:27:12;97819.59;;;1.43;100.00
12759;BME280;20944;47.048;15.390;2023-12-29T01:29:41;97841.09;;;1.44;100.00
12759;BME280;20944;47.048;15.390;2023-12-29T01:32:09;97843.66;;;1.41;100.00
12759;BME280;20944;47.048;15.390;2023-12-29T01:34:38;97830.69;;;1.34;100.00
12759;BME280;20944;47.048;15.390;2023-12-29T01:37:06;97840.28;;;1.45;100.00
12759;BME280;20944;47.048;15.390;2023-12-29T01:39:35;97838.50;;;1.41;100.00
12759;BME280;20944;47.048;15.390;2023-12-29T01:42:04;97836.72;;;1.38;100.00
12759;BME280;20944;47.048;15.390;2023-12-29T01:44:34;97835.06;;;1.40;100.00
12759;BME280;20944;47.048;15.390;2023-12-29T01:47:03;97891.88;;;1.43;100.00
12759;BME280;20944;47.048;15.390;2023-12-29T01:49:34;97829.97;;;1.49;100.00
12759;BME280;20944;47.048;15.390;2023-12-29T01:52:03;97797.91;;;1.26;100.00
12759;BME280;20944;47.048;15.390;2023-12-29T01:54:34;97818.72;;;1.43;100.00
12759;BME280;20944;47.048;15.390;2023-12-29T01:57:05;97807.41;;;1.31;100.00
12759;BME280;20944;47.048;15.390;2023-12-29T01:59:37;97816.19;;;1.47;100.00
12759;BME280;20944;47.048;15.390;2023-12-29T02:02:06;97769.47;;;1.21;100.00
12759;BME280;20944;47.048;15.390;2023-12-29T02:04:35;97811.81;;;1.40;100.00
12759;BME280;20944;47.048;15.390;2023-12-29T02:07:05;97800.56;;;1.35;100.00
12759;BME280;20944;47.048;15.390;2023-12-29T02:09:34;97789.41;;;1.36;100.00
12759;BME280;20944;47.048;15.390;2023-12-29T02:12:03;97804.09;;;1.42;100.00
12759;BME280;20944;47.048;15.390;2023-12-29T02:14:32;97788.53;;;1.37;100.00
12759;BME280;20944;47.048;15.390;2023-12-29T02:17:07;97779.19;;;1.45;100.00
12759;BME280;20944;47.048;15.390;2023-12-29T02:19:40;97776.63;;;1.47;100.00
12759;BME280;20944;47.048;15.390;2023-12-29T02:22:11;97634.63;;;0.59;100.00
12759;BME280;20944;47.048;15.390;2023-12-29T02:24:44;97777.44;;;1.44;100.00
12759;BME280;20944;47.048;15.390;2023-12-29T02:27:23;97750.53;;;1.24;100.00
12759;BME280;20944;47.048;15.390;2023-12-29T02:30:00;97792.97;;;1.46;100.00
12759;BME280;20944;47.048;15.390;2023-12-29T02:32:31;97791.25;;;1.49;100.00
12759;BME280;20944;47.048;15.390;2023-12-29T02:35:02;97791.97;;;1.33;100.00
12759;BME280;20944;47.048;15.390;2023-12-29T02:37:36;97781.72;;;1.44;100.00
12759;BME280;20944;47.048;15.390;2023-12-29T02:40:07;97781.72;;;1.44;100.00
12759;BME280;20944;47.048;15.390;2023-12-29T02:42:36;97770.53;;;1.43;100.00
12759;BME280;20944;47.048;15.390;2023-12-29T02:45:05;97770.53;;;1.42;100.00
12759;BME280;20944;47.048;15.390;2023-12-29T02:47:34;97780.78;;;1.32;100.00
12759;BME280;20944;47.048;15.390;2023-12-29T02:50:03;97774.75;;;1.33;100.00
12759;BME280;20944;47.048;15.390;2023-12-29T02:52:32;97771.19;;;1.25;100.00
12759;BME280;20944;47.048;15.390;2023-12-29T02:55:01;97769.53;;;1.29;100.00
12759;BME280;20944;47.048;15.390;2023-12-29T02:57:31;97774.63;;;1.23;100.00
12759;BME280;20944;47.048;15.390;2023-12-29T02:59:59;97749.59;;;1.16;100.00
12759;BME280;20944;47.048;15.390;2023-12-29T03:02:28;97768.59;;;1.24;100.00
12759;BME280;20944;47.048;15.390;2023-12-29T03:04:56;97778.88;;;1.19;100.00
12759;BME280;20944;47.048;15.390;2023-12-29T03:07:24;97762.38;;;1.06;100.00
12759;BME280;20944;47.048;15.390;2023-12-29T03:09:53;97769.31;;;1.09;100.00
12759;BME280;20944;47.048;15.390;2023-12-29T03:12:21;97771.09;;;1.15;100.00
12759;BME280;20944;47.048;15.390;2023-12-29T03:14:51;97758.94;;;1.06;100.00
12759;BME280;20944;47.048;15.390;2023-12-29T03:17:19;97759.88;;;1.13;100.00
12759;BME280;20944;47.048;15.390;2023-12-29T03:19:47;97761.59;;;1.11;100.00
12759;BME280;20944;47.048;15.390;2023-12-29T03:22:16;97762.50;;;1.14;100.00
12759;BME280;20944;47.048;15.390;2023-12-29T03:24:44;97762.44;;;1.08;100.00
12759;BME280;20944;47.048;15.390;2023-12-29T03:27:13;97747.69;;;0.99;100.00
12759;BME280;20944;47.048;15.390;2023-12-29T03:29:41;97766.72;;;1.07;100.00
12759;BME280;20944;47.048;15.390;2023-12-29T03:32:11;97770.09;;;1.02;100.00
12759;BME280;20944;47.048;15.390;2023-12-29T03:34:39;97772.69;;;1.06;100.00
12759;BME280;20944;47.048;15.390;2023-12-29T03:37:08;97773.53;;;1.02;100.00
12759;BME280;20944;47.048;15.390;2023-12-29T03:39:36;97768.31;;;0.96;100.00
12759;BME280;20944;47.048;15.390;2023-12-29T03:42:05;97763.16;;;0.98;100.00
12759;BME280;20944;47.048;15.390;2023-12-29T03:44:33;97756.25;;;0.95;100.00
12759;BME280;20944;47.048;15.390;2023-12-29T03:47:02;97753.69;;;0.97;100.00
12759;BME280;20944;47.048;15.390;2023-12-29T03:49:32;97751.03;;;0.92;100.00
12759;BME280;20944;47.048;15.390;2023-12-29T03:52:01;97749.34;;;0.93;100.00
12759;BME280;20944;47.048;15.390;2023-12-29T03:54:29;97744.94;;;0.86;100.00
12759;BME280;20944;47.048;15.390;2023-12-29T03:56:58;97742.44;;;0.93;100.00
12759;BME280;20944;47.048;15.390;2023-12-29T03:59:26;97749.47;;;1.02;100.00
12759;BME280;20944;47.048;15.390;2023-12-29T04:01:54;97759.72;;;1.00;100.00
12759;BME280;20944;47.048;15.390;2023-12-29T04:04:23;97763.16;;;0.99;100.00
12759;BME280;20944;47.048;15.390;2023-12-29T04:06:53;97757.22;;;1.05;100.00
12759;BME280;20944;47.048;15.390;2023-12-29T04:09:21;97702.66;;;0.71;100.00
12759;BME280;20944;47.048;15.390;2023-12-29T04:11:50;97761.44;;;0.97;100.00
12759;BME280;20944;47.048;15.390;2023-12-29T04:14:18;97757.06;;;0.91;100.00
12759;BME280;20944;47.048;15.390;2023-12-29T04:16:46;97739.00;;;0.91;100.00
12759;BME280;20944;47.048;15.390;2023-12-29T04:19:14;97693.97;;;0.63;100.00
12759;BME280;20944;47.048;15.390;2023-12-29T04:21:44;97734.75;;;0.95;100.00
12759;BME280;20944;47.048;15.390;2023-12-29T04:24:14;97746.81;;;0.97;100.00
12759;BME280;20944;47.048;15.390;2023-12-29T04:26:42;97713.00;;;0.73;100.00
12759;BME280;20944;47.048;15.390;2023-12-29T04:29:10;97752.69;;;0.84;100.00
12759;BME280;20944;47.048;15.390;2023-12-29T04:31:39;97758.63;;;0.78;100.00
12759;BME280;20944;47.048;15.390;2023-12-29T04:34:07;97757.63;;;0.69;100.00
12759;BME280;20944;47.048;15.390;2023-12-29T04:36:35;97770.50;;;0.69;100.00
12759;BME280;20944;47.048;15.390;2023-12-29T04:39:04;97774.84;;;0.70;100.00
12759;BME280;20944;47.048;15.390;2023-12-29T04:41:34;97779.09;;;0.68;100.00
12759;BME280;20944;47.048;15.390;2023-12-29T04:44:02;97778.22;;;0.64;100.00
12759;BME280;20944;47.048;15.390;2023-12-29T04:46:31;97770.47;;;0.66;100.00
12759;BME280;20944;47.048;15.390;2023-12-29T04:48:59;97768.75;;;0.65;100.00
12759;BME280;20944;47.048;15.390;2023-12-29T04:51:27;97761.09;;;0.71;100.00
12759;BME280;20944;47.048;15.390;2023-12-29T04:53:56;97756.75;;;0.67;100.00
12759;BME280;20944;47.048;15.390;2023-12-29T04:56:24;97747.91;;;0.49;100.00
12759;BME280;20944;47.048;15.390;2023-12-29T04:58:54;97772.03;;;0.54;100.00
12759;BME280;20944;47.048;15.390;2023-12-29T05:01:23;97774.63;;;0.56;100.00
12759;BME280;20944;47.048;15.390;2023-12-29T05:03:52;97766.88;;;0.53;100.00
12759;BME280;20944;47.048;15.390;2023-12-29T05:06:20;97772.91;;;0.57;100.00
12759;BME280;20944;47.048;15.390;2023-12-29T05:08:48;97775.47;;;0.53;100.00
12759;BME280;20944;47.048;15.390;2023-12-29T05:11:17;97776.31;;;0.51;100.00
12759;BME280;20944;47.048;15.390;2023-12-29T05:13:45;97750.22;;;0.31;100.00
12759;BME280;20944;47.048;15.390;2023-12-29T05:16:15;97773.56;;;0.39;100.00
12759;BME280;20944;47.048;15.390;2023-12-29T05:18:43;97761.53;;;0.41;100.00
12759;BME280;20944;47.048;15.390;2023-12-29T05:21:16;97778.91;;;0.52;100.00
12759;BME280;20944;47.048;15.390;2023-12-29T05:23:45;97750.19;;;0.28;100.00
12759;BME280;20944;47.048;15.390;2023-12-29T05:26:14;97786.47;;;0.42;100.00
12759;BME280;20944;47.048;15.390;2023-12-29T05:28:43;97780.19;;;0.24;100.00
12759;BME280;20944;47.048;15.390;2023-12-29T05:31:11;97778.53;;;0.28;100.00
12759;BME280;20944;47.048;15.390;2023-12-29T05:33:42;97787.25;;;0.36;100.00
12759;BME280;20944;47.048;15.390;2023-12-29T05:36:11;97769.84;;;0.21;100.00
12759;BME280;20944;47.048;15.390;2023-12-29T05:38:40;97744.69;;;0.04;100.00
12759;BME280;20944;47.048;15.390;2023-12-29T05:41:08;97774.22;;;0.25;100.00
12759;BME280;20944;47.048;15.390;2023-12-29T05:43:41;97795.84;;;0.37;100.00
12759;BME280;20944;47.048;15.390;2023-12-29T05:46:09;97791.41;;;0.26;100.00
12759;BME280;20944;47.048;15.390;2023-12-29T05:48:40;97764.59;;;0.14;100.00
12759;BME280;20944;47.048;15.390;2023-12-29T05:51:09;97806.03;;;0.28;100.00
12759;BME280;20944;47.048;15.390;2023-12-29T05:53:39;97801.72;;;0.28;100.00
12759;BME280;20944;47.048;15.390;2023-12-29T05:56:12;97785.13;;;0.11;100.00
12759;BME280;20944;47.048;15.390;2023-12-29T05:58:41;97792.31;;;0.30;100.00
12759;BME280;20944;47.048;15.390;2023-12-29T06:01:10;97791.34;;;0.25;100.00
12759;BME280;20944;47.048;15.390;2023-12-29T06:03:38;97794.84;;;0.27;100.00
12759;BME280;20944;47.048;15.390;2023-12-29T06:06:08;97806.78;;;0.22;100.00
12759;BME280;20944;47.048;15.390;2023-12-29T06:08:37;97798.22;;;0.24;100.00
12759;BME280;20944;47.048;15.390;2023-12-29T06:11:05;97797.38;;;0.24;100.00
12759;BME280;20944;47.048;15.390;2023-12-29T06:13:34;97797.25;;;0.16;100.00
12759;BME280;20944;47.048;15.390;2023-12-29T06:16:03;97798.13;;;0.17;100.00
12759;BME280;20944;47.048;15.390;2023-12-29T06:18:31;97797.34;;;0.21;100.00
12759;BME280;20944;47.048;15.390;2023-12-29T06:21:01;97806.81;;;0.23;100.00
12759;BME280;20944;47.048;15.390;2023-12-29T06:23:32;97791.13;;;0.10;100.00
12759;BME280;20944;47.048;15.390;2023-12-29T06:26:00;97804.97;;;0.16;100.00
12759;BME280;20944;47.048;15.390;2023-12-29T06:28:29;97812.69;;;0.13;100.00
12759;BME280;20944;47.048;15.390;2023-12-29T06:30:57;97810.03;;;0.10;100.00
12759;BME280;20944;47.048;15.390;2023-12-29T06:33:25;97804.16;;;0.19;100.00
12759;BME280;20944;47.048;15.390;2023-12-29T06:35:54;97812.88;;;0.27;100.00
12759;BME280;20944;47.048;15.390;2023-12-29T06:38:22;97784.25;;;0.09;100.00
12759;BME280;20944;47.048;15.390;2023-12-29T06:40:52;97811.38;;;0.40;100.00
12759;BME280;20944;47.048;15.390;2023-12-29T06:43:21;97811.28;;;0.34;100.00
12759;BME280;20944;47.048;15.390;2023-12-29T06:45:49;97810.41;;;0.33;100.00
12759;BME280;20944;47.048;15.390;2023-12-29T06:48:17;97825.09;;;0.39;100.00
12759;BME280;20944;47.048;15.390;2023-12-29T06:50:47;97795.59;;;0.20;100.00
12759;BME280;20944;47.048;15.390;2023-12-29T06:53:15;97827.69;;;0.39;100.00
12759;BME280;20944;47.048;15.390;2023-12-29T06:55:44;97827.00;;;0.52;100.00
12759;BME280;20944;47.048;15.390;2023-12-29T06:58:14;97791.34;;;0.22;100.00
12759;BME280;20944;47.048;15.390;2023-12-29T07:00:42;97822.72;;;0.52;100.00
12759;BME280;20944;47.048;15.390;2023-12-29T07:03:13;97829.69;;;0.58;100.00
12759;BME280;20944;47.048;15.390;2023-12-29T07:05:42;97835.78;;;0.65;100.00
12759;BME280;20944;47.048;15.390;2023-12-29T07:08:13;97828.91;;;0.64;100.00
12759;BME280;20944;47.048;15.390;2023-12-29T07:10:41;97837.50;;;0.64;100.00
12759;BME280;20944;47.048;15.390;2023-12-29T07:13:10;97836.59;;;0.62;100.00
12759;BME280;20944;47.048;15.390;2023-12-29T07:15:40;97840.09;;;0.64;100.00
12759;BME280;20944;47.048;15.390;2023-12-29T07:18:08;97845.28;;;0.69;100.00
12759;BME280;20944;47.048;15.390;2023-12-29T07:20:37;97841.03;;;0.71;100.00
12759;BME280;20944;47.048;15.390;2023-12-29T07:23:06;97832.44;;;0.72;100.00
12759;BME280;20944;47.048;15.390;2023-12-29T07:25:34;97852.47;;;0.88;100.00
12759;BME280;20944;47.048;15.390;2023-12-29T07:28:03;97850.06;;;1.02;100.00
12759;BME280;20944;47.048;15.390;2023-12-29T07:30:31;97857.03;;;1.11;100.00
12759;BME280;20944;47.048;15.390;2023-12-29T07:33:01;97852.81;;;1.16;100.00
12759;BME280;20944;47.048;15.390;2023-12-29T07:35:30;97853.84;;;1.28;100.00
12759;BME280;20944;47.048;15.390;2023-12-29T07:37:59;97854.88;;;1.44;100.00
12759;BME280;20944;47.048;15.390;2023-12-29T07:40:28;97856.66;;;1.47;100.00
12759;BME280;20944;47.048;15.390;2023-12-29T07:42:56;97857.66;;;1.59;100.00
12759;BME280;20944;47.048;15.390;2023-12-29T07:45:25;97860.22;;;1.59;100.00
12759;BME280;20944;47.048;15.390;2023-12-29T07:47:53;97869.03;;;1.77;100.00
12759;BME280;20944;47.048;15.390;2023-12-29T07:50:23;97860.50;;;1.87;100.00
12759;BME280;20944;47.048;15.390;2023-12-29T07:52:51;97868.38;;;1.96;100.00
12759;BME280;20944;47.048;15.390;2023-12-29T07:55:20;97861.63;;;2.12;100.00
12759;BME280;20944;47.048;15.390;2023-12-29T07:57:48;97866.84;;;2.20;100.00
12759;BME280;20944;47.048;15.390;2023-12-29T08:00:17;97865.19;;;2.25;100.00
12759;BME280;20944;47.048;15.390;2023-12-29T08:02:45;97860.97;;;2.33;100.00
12759;BME280;20944;47.048;15.390;2023-12-29T08:05:14;97865.38;;;2.48;100.00
12759;BME280;20944;47.048;15.390;2023-12-29T08:07:45;97871.50;;;2.59;100.00
12759;BME280;20944;47.048;15.390;2023-12-29T08:10:13;97871.56;;;2.66;100.00
12759;BME280;20944;47.048;15.390;2023-12-29T08:12:42;97857.81;;;2.70;100.00
12759;BME280;20944;47.048;15.390;2023-12-29T08:15:10;97779.97;;;2.34;100.00
12759;BME280;20944;47.048;15.390;2023-12-29T08:17:39;97865.72;;;3.01;100.00
12759;BME280;20944;47.048;15.390;2023-12-29T08:20:08;97857.16;;;3.10;100.00
12759;BME280;20944;47.048;15.390;2023-12-29T08:22:37;97854.63;;;3.19;100.00
12759;BME280;20944;47.048;15.390;2023-12-29T08:25:07;97865.84;;;3.19;100.00
12759;BME280;20944;47.048;15.390;2023-12-29T08:27:37;97869.28;;;3.20;100.00
12759;BME280;20944;47.048;15.390;2023-12-29T08:30:05;97859.84;;;3.28;100.00
12759;BME280;20944;47.048;15.390;2023-12-29T08:32:34;97860.78;;;3.41;100.00
12759;BME280;20944;47.048;15.390;2023-12-29T08:35:03;97844.38;;;3.42;100.00
12759;BME280;20944;47.048;15.390;2023-12-29T08:37:33;97839.22;;;3.48;100.00
12759;BME280;20944;47.048;15.390;2023-12-29T08:40:02;97850.47;;;3.62;100.00
12759;BME280;20944;47.048;15.390;2023-12-29T08:42:32;97842.72;;;3.68;100.00
12759;BME280;20944;47.048;15.390;2023-12-29T08:45:01;97835.84;;;3.78;100.00
12759;BME280;20944;47.048;15.390;2023-12-29T08:47:32;97820.28;;;3.76;100.00
12759;BME280;20944;47.048;15.390;2023-12-29T08:50:01;97847.97;;;3.96;100.00
12759;BME280;20944;47.048;15.390;2023-12-29T08:52:30;97848.84;;;4.05;100.00
12759;BME280;20944;47.048;15.390;2023-12-29T08:55:00;97853.19;;;4.17;100.00
12759;BME280;20944;47.048;15.390;2023-12-29T08:57:28;97862.72;;;4.27;100.00
12759;BME280;20944;47.048;15.390;2023-12-29T08:59:58;97872.22;;;4.38;100.00
12759;BME280;20944;47.048;15.390;2023-12-29T09:02:26;97870.50;;;4.44;100.00
12759;BME280;20944;47.048;15.390;2023-12-29T09:04:54;97877.41;;;4.45;100.00
12759;BME280;20944;47.048;15.390;2023-12-29T09:07:23;97865.31;;;4.47;100.00
12759;BME280;20944;47.048;15.390;2023-12-29T09:09:51;97866.19;;;4.46;100.00
12759;BME280;20944;47.048;15.390;2023-12-29T09:12:19;97873.09;;;4.53;100.00
12759;BME280;20944;47.048;15.390;2023-12-29T09:14:48;97860.13;;;4.63;100.00
12759;BME280;20944;47.048;15.390;2023-12-29T09:17:18;97856.63;;;4.71;100.00
12759;BME280;20944;47.048;15.390;2023-12-29T09:19:46;97860.94;;;4.83;100.00
12759;BME280;20944;47.048;15.390;2023-12-29T09:22:26;97830.72;;;4.54;100.00
12759;BME280;20944;47.048;15.390;2023-12-29T09:24:54;97856.66;;;4.80;100.00
12759;BME280;20944;47.048;15.390;2023-12-29T09:27:23;97856.66;;;4.85;100.00
12759;BME280;20944;47.048;15.390;2023-12-29T09:29:51;97859.22;;;4.91;100.00
12759;BME280;20944;47.048;15.390;2023-12-29T09:32:21;97853.16;;;4.97;100.00
12759;BME280;20944;47.048;15.390;2023-12-29T09:34:49;97859.19;;;5.06;100.00
12759;BME280;20944;47.048;15.390;2023-12-29T09:37:18;97858.28;;;5.15;100.00
12759;BME280;20944;47.048;15.390;2023-12-29T09:39:46;97853.06;;;5.26;100.00
12759;BME280;20944;47.048;15.390;2023-12-29T09:42:20;97820.22;;;5.14;100.00
12759;BME280;20944;47.048;15.390;2023-12-29T09:44:50;97851.25;;;5.49;100.00
12759;BME280;20944;47.048;15.390;2023-12-29T09:47:23;97847.78;;;5.55;100.00
12759;BME280;20944;47.048;15.390;2023-12-29T09:49:52;97842.56;;;5.56;100.00
12759;BME280;20944;47.048;15.390;2023-12-29T09:52:22;97851.22;;;5.61;100.00
12759;BME280;20944;47.048;15.390;2023-12-29T09:54:52;97846.88;;;5.66;100.00
12759;BME280;20944;47.048;15.390;2023-12-29T09:57:21;97845.03;;;5.81;100.00
12759;BME280;20944;47.048;15.390;2023-12-29T09:59:49;97837.19;;;5.90;100.00
12759;BME280;20944;47.048;15.390;2023-12-29T10:02:21;97805.19;;;5.80;100.00
12759;BME280;20944;47.048;15.390;2023-12-29T10:04:50;97826.69;;;6.08;100.00
12759;BME280;20944;47.048;15.390;2023-12-29T10:07:23;97779.09;;;5.89;100.00
12759;BME280;20944;47.048;15.390;2023-12-29T10:09:55;97821.34;;;6.28;100.00
12759;BME280;20944;47.048;15.390;2023-12-29T10:12:24;97812.56;;;6.43;100.00
12759;BME280;20944;47.048;15.390;2023-12-29T10:15:01;97834.19;;;6.49;99.30
12759;BME280;20944;47.048;15.390;2023-12-29T10:17:43;97826.28;;;6.59;98.88
12759;BME280;20944;47.048;15.390;2023-12-29T10:20:24;97822.75;;;6.66;98.27
12759;BME280;20944;47.048;15.390;2023-12-29T10:23:05;97803.72;;;6.62;97.46
12759;BME280;20944;47.048;15.390;2023-12-29T10:25:35;97810.47;;;6.82;96.46
12759;BME280;20944;47.048;15.390;2023-12-29T10:28:04;97812.06;;;6.98;95.09
12759;BME280;20944;47.048;15.390;2023-12-29T10:30:33;97805.09;;;6.97;93.87
12759;BME280;20944;47.048;15.390;2023-12-29T10:33:04;97801.59;;;6.99;92.31
12759;BME280;20944;47.048;15.390;2023-12-29T10:35:35;97792.78;;;7.13;93.25
12759;BME280;20944;47.048;15.390;2023-12-29T10:38:11;97790.94;;;7.19;92.48
12759;BME280;20944;47.048;15.390;2023-12-29T10:40:40;97794.38;;;7.24;92.38
12759;BME280;20944;47.048;15.390;2023-12-29T10:43:10;97783.75;;;7.40;92.34
12759;BME280;20944;47.048;15.390;2023-12-29T10:45:38;97778.44;;;7.47;91.93
12759;BME280;20944;47.048;15.390;2023-12-29T10:48:08;97680.84;;;7.05;92.30
12759;BME280;20944;47.048;15.390;2023-12-29T10:50:43;97765.16;;;7.67;92.64
12759;BME280;20944;47.048;15.390;2023-12-29T10:53:13;97752.09;;;7.67;92.48
12759;BME280;20944;47.048;15.390;2023-12-29T10:55:44;97764.06;;;7.82;92.60
12759;BME280;20944;47.048;15.390;2023-12-29T10:58:15;97767.53;;;7.82;91.90
12759;BME280;20944;47.048;15.390;2023-12-29T11:00:44;97757.81;;;7.91;93.46
12759;BME280;20944;47.048;15.390;2023-12-29T11:03:15;97766.25;;;8.08;91.56
12759;BME280;20944;47.048;15.390;2023-12-29T11:05:44;97756.41;;;8.25;91.50
12759;BME280;20944;47.048;15.390;2023-12-29T11:08:16;97744.84;;;8.42;91.13
12759;BME280;20944;47.048;15.390;2023-12-29T11:10:47;97735.78;;;8.61;88.24
12759;BME280;20944;47.048;15.390;2023-12-29T11:13:16;97735.28;;;8.88;88.50
12759;BME280;20944;47.048;15.390;2023-12-29T11:15:47;97727.28;;;8.96;86.71
12759;BME280;20944;47.048;15.390;2023-12-29T11:18:17;97723.50;;;9.12;85.40
12759;BME280;20944;47.048;15.390;2023-12-29T11:20:46;97724.63;;;9.41;83.73
12759;BME280;20944;47.048;15.390;2023-12-29T11:23:14;97730.38;;;9.57;81.99
12759;BME280;20944;47.048;15.390;2023-12-29T11:25:44;97711.91;;;9.64;81.21
12759;BME280;20944;47.048;15.390;2023-12-29T11:28:13;97704.59;;;9.79;80.77
12759;BME280;20944;47.048;15.390;2023-12-29T11:30:42;97718.19;;;9.93;79.32
12759;BME280;20944;47.048;15.390;2023-12-29T11:33:17;97708.47;;;9.99;76.92
12759;BME280;20944;47.048;15.390;2023-12-29T11:35:50;97709.03;;;10.12;76.91
12759;BME280;20944;47.048;15.390;2023-12-29T11:38:40;97702.63;;;10.25;73.66
12759;BME280;20944;47.048;15.390;2023-12-29T11:41:13;97697.06;;;10.38;76.13
12759;BME280;20944;47.048;15.390;2023-12-29T11:43:45;97687.31;;;10.43;75.51
12759;BME280;20944;47.048;15.390;2023-12-29T11:46:34;97679.22;;;10.52;74.83
12759;BME280;20944;47.048;15.390;2023-12-29T11:49:04;97635.69;;;10.46;74.04
12759;BME280;20944;47.048;15.390;2023-12-29T11:51:35;97669.69;;;10.80;72.34
12759;BME280;20944;47.048;15.390;2023-12-29T11:54:04;97676.72;;;11.10;69.72
12759;BME280;20944;47.048;15.390;2023-12-29T11:56:36;97667.03;;;11.13;70.29
12759;BME280;20944;47.048;15.390;2023-12-29T11:59:18;97677.94;;;11.27;69.90
12759;BME280;20944;47.048;15.390;2023-12-29T12:01:48;97674.13;;;11.38;69.28
12759;BME280;20944;47.048;15.390;2023-12-29T12:04:37;97675.78;;;11.42;66.07
12759;BME280;20944;47.048;15.390;2023-12-29T12:07:13;97661.31;;;11.28;66.60
12759;BME280;20944;47.048;15.390;2023-12-29T12:09:42;97639.16;;;11.09;68.88
12759;BME280;20944;47.048;15.390;2023-12-29T12:12:10;97670.63;;;11.39;71.20
12759;BME280;20944;47.048;15.390;2023-12-29T12:14:49;97671.19;;;11.48;70.73
12759;BME280;20944;47.048;15.390;2023-12-29T12:17:30;97657.94;;;11.53;69.84
12759;BME280;20944;47.048;15.390;2023-12-29T12:20:04;97666.66;;;11.53;70.79
12759;BME280;20944;47.048;15.390;2023-12-29T12:22:35;97659.59;;;11.55;68.03
12759;BME280;20944;47.048;15.390;2023-12-29T12:25:06;97663.72;;;11.64;67.90
12759;BME280;20944;47.048;15.390;2023-12-29T12:27:37;97615.09;;;11.52;68.55
12759;BME280;20944;47.048;15.390;2023-12-29T12:30:07;97627.78;;;11.66;67.37
12759;BME280;20944;47.048;15.390;2023-12-29T12:32:37;97647.16;;;11.90;67.20
12759;BME280;20944;47.048;15.390;2023-12-29T12:35:15;97646.13;;;11.94;66.48
12759;BME280;20944;47.048;15.390;2023-12-29T12:37:46;97613.44;;;11.76;67.43
12759;BME280;20944;47.048;15.390;2023-12-29T12:40:25;97640.53;;;12.05;67.02
12759;BME280;20944;47.048;15.390;2023-12-29T12:42:53;97640.22;;;12.14;66.32
12759;BME280;20944;47.048;15.390;2023-12-29T12:45:22;97632.50;;;12.09;65.13
12759;BME280;20944;47.048;15.390;2023-12-29T12:47:59;97650.63;;;12.17;64.18
12759;BME280;20944;47.048;15.390;2023-12-29T12:50:30;97647.19;;;12.15;64.62
12759;BME280;20944;47.048;15.390;2023-12-29T12:52:58;97645.09;;;12.25;63.99
12759;BME280;20944;47.048;15.390;2023-12-29T12:55:30;97645.22;;;12.47;63.69
12759;BME280;20944;47.048;15.390;2023-12-29T12:58:01;97679.72;;;12.62;61.98
12759;BME280;20944;47.048;15.390;2023-12-29T13:00:33;97645.91;;;12.77;61.29
12759;BME280;20944;47.048;15.390;2023-12-29T13:03:02;97651.75;;;13.08;60.90